createdAt,value
2018-05-02T00:00:13.033Z,65.2
2018-05-02T00:00:53.546Z,64.53
2018-05-02T00:01:34.071Z,64.82
2018-05-02T00:02:14.606Z,65.11
2018-05-02T00:02:55.116Z,65.01
2018-05-02T00:03:35.632Z,64.72
2018-05-02T00:04:16.144Z,65.01
2018-05-02T00:04:56.662Z,64.91
2018-05-02T00:05:37.179Z,65.01
2018-05-02T00:06:17.703Z,65.39
2018-05-02T00:06:58.200Z,64.82
2018-05-02T00:07:38.743Z,65.3
2018-05-02T00:08:19.253Z,65.3
2018-05-02T00:08:59.767Z,65.2
2018-05-02T00:09:40.295Z,65.01
2018-05-02T00:10:20.809Z,65.11
2018-05-02T00:11:01.323Z,64.91
2018-05-02T00:11:41.844Z,64.72
2018-05-02T00:12:22.368Z,65.01
2018-05-02T00:13:02.891Z,65.11
2018-05-02T00:13:43.408Z,66.06
2018-05-02T00:14:23.924Z,65.97
2018-05-02T00:15:04.423Z,65.48
2018-05-02T00:15:44.947Z,65.77
2018-05-02T00:16:25.460Z,65.97
2018-05-02T00:17:05.996Z,65.77
2018-05-02T00:17:46.511Z,65.97
2018-05-02T00:18:27.025Z,65.3
2018-05-02T00:19:07.544Z,66.16
2018-05-02T00:19:48.058Z,65.39
2018-05-02T00:20:28.589Z,65.3
2018-05-02T00:21:09.113Z,65.39
2018-05-02T00:21:49.622Z,65.39
2018-05-02T00:22:30.137Z,65.2
2018-05-02T00:23:10.660Z,65.77
2018-05-02T00:23:51.186Z,66.06
2018-05-02T00:24:31.703Z,66.25
2018-05-02T00:25:12.215Z,65.87
2018-05-02T00:25:52.738Z,66.06
2018-05-02T00:26:33.251Z,65.3
2018-05-02T00:27:13.744Z,65.39
2018-05-02T00:27:54.259Z,65.39
2018-05-02T00:28:34.817Z,65.3
2018-05-02T00:29:15.307Z,64.82
2018-05-02T00:29:55.831Z,65.39
2018-05-02T00:30:36.331Z,65.39
2018-05-02T00:31:16.869Z,65.11
2018-05-02T00:31:57.388Z,64.91
2018-05-02T00:32:37.909Z,64.82
2018-05-02T00:33:18.437Z,65.2
2018-05-02T00:33:58.991Z,65.3
2018-05-02T00:34:39.471Z,64.82
2018-05-02T00:35:19.985Z,65.58
2018-05-02T00:36:00.519Z,64.82
2018-05-02T00:36:41.024Z,64.43
2018-05-02T00:37:21.539Z,65.2
2018-05-02T00:38:02.052Z,64.91
2018-05-02T00:38:42.562Z,64.53
2018-05-02T00:39:23.074Z,64.25
2018-05-02T00:40:03.575Z,63.96
2018-05-02T00:40:44.095Z,63.54
2018-05-02T00:41:24.627Z,64.02
2018-05-02T00:42:05.151Z,64.4
2018-05-02T00:42:45.676Z,64.4
2018-05-02T00:43:26.189Z,64.69
2018-05-02T00:44:06.705Z,64.98
2018-05-02T00:44:47.214Z,64.88
2018-05-02T00:45:27.731Z,64.69
2018-05-02T00:46:08.251Z,64.72
2018-05-02T00:46:48.772Z,64.69
2018-05-02T00:47:29.300Z,64.88
2018-05-02T00:48:09.798Z,64.69
2018-05-02T00:48:50.310Z,64.5
2018-05-02T00:49:30.833Z,64.78
2018-05-02T00:50:11.336Z,64.69
2018-05-02T00:50:51.903Z,65.26
2018-05-02T00:51:32.434Z,64.88
2018-05-02T00:52:12.950Z,64.5
2018-05-02T00:52:53.472Z,64.69
2018-05-02T00:53:34.008Z,64.59
2018-05-02T00:54:14.518Z,65.17
2018-05-02T00:54:55.052Z,65.26
2018-05-02T00:55:35.554Z,65.17
2018-05-02T00:56:16.074Z,65.26
2018-05-02T00:58:16.005Z,64.98
2018-05-02T00:58:56.514Z,64.88
2018-05-02T00:59:37.023Z,64.69
2018-05-02T01:00:17.539Z,64.78
2018-05-02T01:00:58.089Z,64.31
2018-05-02T01:01:38.608Z,64.4
2018-05-02T01:02:19.124Z,64.22
2018-05-02T01:02:59.634Z,64.31
2018-05-02T01:03:40.148Z,64.98
2018-05-02T01:04:20.672Z,64.59
2018-05-02T01:05:01.181Z,64.69
2018-05-02T01:05:41.702Z,64.88
2018-05-02T01:06:22.217Z,64.69
2018-05-02T01:07:02.736Z,64.98
2018-05-02T01:07:43.249Z,64.78
2018-05-02T01:08:23.762Z,64.4
2018-05-02T01:09:04.268Z,64.22
2018-05-02T01:09:44.779Z,64.02
2018-05-02T01:10:25.284Z,64.22
2018-05-02T01:11:05.800Z,64.4
2018-05-02T01:11:46.309Z,64.02
2018-05-02T01:12:26.831Z,64.02
2018-05-02T01:13:07.358Z,64.22
2018-05-02T01:13:47.877Z,64.31
2018-05-02T01:14:28.408Z,64.4
2018-05-02T01:15:08.920Z,64.02
2018-05-02T01:15:49.430Z,64.4
2018-05-02T01:16:29.963Z,64.02
2018-05-02T01:17:10.468Z,64.22
2018-05-02T01:17:50.980Z,64.12
2018-05-02T01:18:31.485Z,64.02
2018-05-02T01:19:11.999Z,63.54
2018-05-02T01:19:52.493Z,63.83
2018-05-02T01:20:33.008Z,63.73
2018-05-02T01:21:13.533Z,64.69
2018-05-02T01:21:54.112Z,64.02
2018-05-02T01:22:34.616Z,64.22
2018-05-02T01:23:15.135Z,64.31
2018-05-02T01:23:55.675Z,64.5
2018-05-02T01:24:36.202Z,64.4
2018-05-02T01:25:16.721Z,64.12
2018-05-02T01:25:57.240Z,64.98
2018-05-02T01:26:37.759Z,64.4
2018-05-02T01:27:18.278Z,63.64
2018-05-02T01:27:58.805Z,63.93
2018-05-02T01:28:39.322Z,64.5
2018-05-02T01:29:19.831Z,64.22
2018-05-02T01:30:00.354Z,64.12
2018-05-02T01:30:40.868Z,64.12
2018-05-02T01:31:21.375Z,64.98
2018-05-02T01:32:01.891Z,64.31
2018-05-02T01:32:42.406Z,64.22
2018-05-02T01:33:22.930Z,64.22
2018-05-02T01:34:03.440Z,64.4
2018-05-02T01:34:43.961Z,64.28
2018-05-02T01:35:24.477Z,64.18
2018-05-02T01:36:04.993Z,64.4
2018-05-02T01:36:45.513Z,64.22
2018-05-02T01:37:26.027Z,64.4
2018-05-02T01:38:06.548Z,64.75
2018-05-02T01:38:47.059Z,64.4
2018-05-02T01:39:27.574Z,64.59
2018-05-02T01:40:08.091Z,64.88
2018-05-02T01:40:48.600Z,64.88
2018-05-02T01:41:29.111Z,65.36
2018-05-02T01:42:09.630Z,64.88
2018-05-02T01:42:50.242Z,64.69
2018-05-02T01:43:30.766Z,64.78
2018-05-02T01:44:11.280Z,64.75
2018-05-02T01:44:51.806Z,65.04
2018-05-02T01:45:32.316Z,65.14
2018-05-02T01:46:12.826Z,65.04
2018-05-02T01:46:53.331Z,65.14
2018-05-02T01:47:33.846Z,65.23
2018-05-02T01:48:14.353Z,64.85
2018-05-02T01:48:54.880Z,64.75
2018-05-02T01:49:35.384Z,65.14
2018-05-02T01:50:15.951Z,65.23
2018-05-02T01:50:56.465Z,65.14
2018-05-02T01:51:36.981Z,64.85
2018-05-02T01:52:17.496Z,64.85
2018-05-02T01:52:58.013Z,64.59
2018-05-02T01:53:38.539Z,64.69
2018-05-02T01:54:19.047Z,64.65
2018-05-02T01:54:59.579Z,64.65
2018-05-02T01:55:40.090Z,64.09
2018-05-02T01:56:20.611Z,64.37
2018-05-02T01:57:01.125Z,64.18
2018-05-02T01:57:41.648Z,64.37
2018-05-02T01:58:22.161Z,64.18
2018-05-02T01:59:02.688Z,63.8
2018-05-02T01:59:43.192Z,63.73
2018-05-02T02:00:23.720Z,64.22
2018-05-02T02:01:04.229Z,63.93
2018-05-02T02:01:44.746Z,63.64
2018-05-02T02:02:25.263Z,63.73
2018-05-02T02:03:05.768Z,63.8
2018-05-02T02:04:53.243Z,64.12
2018-05-02T02:05:33.758Z,63.83
2018-05-02T02:06:14.278Z,64.22
2018-05-02T02:06:54.784Z,63.7
2018-05-02T02:07:35.307Z,64.09
2018-05-02T02:08:15.816Z,63.89
2018-05-02T02:08:56.352Z,63.8
2018-05-02T02:09:36.859Z,63.99
2018-05-02T02:10:17.376Z,64.37
2018-05-02T02:10:57.889Z,64.09
2018-05-02T02:11:38.389Z,63.99
2018-05-02T02:12:18.959Z,64.09
2018-05-02T02:12:59.473Z,63.7
2018-05-02T02:13:39.990Z,64.09
2018-05-02T02:14:20.504Z,63.89
2018-05-02T02:15:01.015Z,63.8
2018-05-02T02:15:41.542Z,63.6
2018-05-02T02:16:22.052Z,63.07
2018-05-02T02:17:02.573Z,63.26
2018-05-02T02:17:43.094Z,62.75
2018-05-02T02:18:23.617Z,62.94
2018-05-02T02:19:04.131Z,62.84
2018-05-02T02:19:44.652Z,62.65
2018-05-02T02:20:25.167Z,62.75
2018-05-02T02:21:05.689Z,62.55
2018-05-02T02:21:46.205Z,63.03
2018-05-02T02:22:26.729Z,63.32
2018-05-02T02:23:07.240Z,63.99
2018-05-02T02:23:47.755Z,63.51
2018-05-02T02:24:28.271Z,63.51
2018-05-02T02:25:08.787Z,63.6
2018-05-02T02:25:49.313Z,63.32
2018-05-02T02:26:29.829Z,63.32
2018-05-02T02:27:10.347Z,63.03
2018-05-02T02:27:50.847Z,63.6
2018-05-02T02:28:31.363Z,63.89
2018-05-02T02:29:11.879Z,64.09
2018-05-02T02:29:52.380Z,63.99
2018-05-02T02:30:32.894Z,63.8
2018-05-02T02:31:13.428Z,64.18
2018-05-02T02:31:53.934Z,63.7
2018-05-02T02:32:34.476Z,63.99
2018-05-02T02:33:14.995Z,64.18
2018-05-02T02:33:55.539Z,63.99
2018-05-02T02:34:36.029Z,64.37
2018-05-02T02:35:16.544Z,64.09
2018-05-02T02:35:57.049Z,64.28
2018-05-02T02:36:37.554Z,64.72
2018-05-02T02:37:18.064Z,64.62
2018-05-02T02:37:58.584Z,64.91
2018-05-02T02:38:39.112Z,65.2
2018-05-02T02:39:19.627Z,64.81
2018-05-02T02:40:00.129Z,64.85
2018-05-02T02:40:40.652Z,64.47
2018-05-02T02:41:21.187Z,64.75
2018-05-02T02:42:01.703Z,64.75
2018-05-02T02:42:42.220Z,64.72
2018-05-02T02:43:22.721Z,64.81
2018-05-02T02:44:03.276Z,65.2
2018-05-02T02:44:43.796Z,65.3
2018-05-02T02:45:24.299Z,64.62
2018-05-02T02:46:04.820Z,64.91
2018-05-02T02:46:45.317Z,64.56
2018-05-02T02:47:25.840Z,64.43
2018-05-02T02:48:06.354Z,64.43
2018-05-02T02:48:46.863Z,64.72
2018-05-02T02:49:27.368Z,64.81
2018-05-02T02:50:07.871Z,65.39
2018-05-02T02:50:48.371Z,64.91
2018-05-02T02:51:28.904Z,64.81
2018-05-02T02:52:09.422Z,64.43
2018-05-02T02:52:49.934Z,64.53
2018-05-02T02:53:30.442Z,64.72
2018-05-02T02:54:10.950Z,64.81
2018-05-02T02:54:51.473Z,64.34
2018-05-02T02:55:31.982Z,64.62
2018-05-02T02:56:12.487Z,64.72
2018-05-02T02:56:52.997Z,65.1
2018-05-02T02:57:33.518Z,65.1
2018-05-02T02:58:14.021Z,65.2
2018-05-02T02:58:54.540Z,64.81
2018-05-02T02:59:35.038Z,65.2
2018-05-02T03:00:15.561Z,65.1
2018-05-02T03:00:56.075Z,65.01
2018-05-02T03:01:36.591Z,64.62
2018-05-02T03:02:17.100Z,64.53
2018-05-02T03:02:57.620Z,64.62
2018-05-02T03:03:38.136Z,65.3
2018-05-02T03:04:18.691Z,65.3
2018-05-02T03:04:59.199Z,64.34
2018-05-02T03:05:39.722Z,64.53
2018-05-02T03:06:20.358Z,64.43
2018-05-02T03:07:00.874Z,64.62
2018-05-02T03:07:41.396Z,64.43
2018-05-02T03:08:21.918Z,64.81
2018-05-02T03:09:02.428Z,64.43
2018-05-02T03:09:42.945Z,64.15
2018-05-02T03:10:23.483Z,64.62
2018-05-02T03:11:04.010Z,64.09
2018-05-02T03:11:44.527Z,63.76
2018-05-02T03:12:25.047Z,63.6
2018-05-02T03:13:05.568Z,64.18
2018-05-02T03:13:46.089Z,63.7
2018-05-02T03:14:26.594Z,63.76
2018-05-02T03:15:07.114Z,63.8
2018-05-02T03:15:47.614Z,63.6
2018-05-02T03:16:28.142Z,64.09
2018-05-02T03:17:08.660Z,63.99
2018-05-02T03:17:49.180Z,63.89
2018-05-02T03:18:29.692Z,63.7
2018-05-02T03:19:10.213Z,63.8
2018-05-02T03:19:50.748Z,63.99
2018-05-02T03:20:31.245Z,63.99
2018-05-02T03:21:11.756Z,63.7
2018-05-02T03:21:52.272Z,63.8
2018-05-02T03:22:32.785Z,63.8
2018-05-02T03:23:13.298Z,63.7
2018-05-02T03:23:53.809Z,63.51
2018-05-02T03:24:34.347Z,63.99
2018-05-02T03:25:14.868Z,63.7
2018-05-02T03:25:55.379Z,64.18
2018-05-02T03:26:35.899Z,64.09
2018-05-02T03:27:16.508Z,63.99
2018-05-02T03:27:57.037Z,63.99
2018-05-02T03:28:37.525Z,64.09
2018-05-02T03:29:18.033Z,63.99
2018-05-02T03:29:58.559Z,63.8
2018-05-02T03:30:39.073Z,63.7
2018-05-02T03:31:19.591Z,63.99
2018-05-02T03:32:00.107Z,64.18
2018-05-02T03:32:40.608Z,64.75
2018-05-02T03:33:21.136Z,64.65
2018-05-02T03:34:01.653Z,64.75
2018-05-02T03:34:42.182Z,64.75
2018-05-02T03:35:22.702Z,64.91
2018-05-02T03:36:03.212Z,64.75
2018-05-02T03:36:43.741Z,64.18
2018-05-02T03:37:24.296Z,64.18
2018-05-02T03:38:04.821Z,64.37
2018-05-02T03:38:45.346Z,64.56
2018-05-02T03:39:25.858Z,63.99
2018-05-02T03:40:06.385Z,63.89
2018-05-02T03:40:46.925Z,63.8
2018-05-02T03:41:27.403Z,63.8
2018-05-02T03:42:07.915Z,63.6
2018-05-02T03:42:48.420Z,63.99
2018-05-02T03:43:28.929Z,63.7
2018-05-02T03:44:09.442Z,63.89
2018-05-02T03:44:49.954Z,63.89
2018-05-02T03:45:30.479Z,63.99
2018-05-02T03:46:11.008Z,63.8
2018-05-02T03:46:51.538Z,63.42
2018-05-02T03:47:32.048Z,63.89
2018-05-02T03:48:12.563Z,63.32
2018-05-02T03:48:53.090Z,63.23
2018-05-02T03:49:33.605Z,63.23
2018-05-02T03:50:14.109Z,63.23
2018-05-02T03:50:54.621Z,62.94
2018-05-02T03:51:35.141Z,62.65
2018-05-02T03:52:15.672Z,62.75
2018-05-02T03:52:56.223Z,62.84
2018-05-02T03:53:36.715Z,62.84
2018-05-02T03:54:17.217Z,62.75
2018-05-02T03:54:57.761Z,62.75
2018-05-02T03:55:38.279Z,62.84
2018-05-02T03:56:18.810Z,62.75
2018-05-02T03:56:59.380Z,62.94
2018-05-02T03:57:39.892Z,62.65
2018-05-02T03:58:20.416Z,62.55
2018-05-02T03:59:00.922Z,62.65
2018-05-02T03:59:41.517Z,62.46
2018-05-02T04:00:21.973Z,63.16
2018-05-02T04:01:02.483Z,62.65
2018-05-02T04:01:42.998Z,62.94
2018-05-02T04:02:23.503Z,62.75
2018-05-02T04:03:04.018Z,62.65
2018-05-02T04:03:44.546Z,62.84
2018-05-02T04:04:25.054Z,63.32
2018-05-02T04:05:05.570Z,63.8
2018-05-02T04:05:46.080Z,63.8
2018-05-02T04:06:26.597Z,63.89
2018-05-02T04:07:07.121Z,64.28
2018-05-02T04:07:47.620Z,64.85
2018-05-02T04:08:28.128Z,64.85
2018-05-02T04:09:08.652Z,65.14
2018-05-02T04:09:49.230Z,65.04
2018-05-02T04:10:29.701Z,65.14
2018-05-02T04:11:10.216Z,65.8
2018-05-02T04:11:50.733Z,65.42
2018-05-02T04:12:31.231Z,65.71
2018-05-02T04:13:11.762Z,65.61
2018-05-02T04:13:52.296Z,65.9
2018-05-02T04:14:32.797Z,65.71
2018-05-02T04:15:13.317Z,66.19
2018-05-02T04:15:53.834Z,66.47
2018-05-02T04:16:34.360Z,65.61
2018-05-02T04:17:14.866Z,66.09
2018-05-02T04:17:55.370Z,65.61
2018-05-02T04:18:35.915Z,65.61
2018-05-02T04:19:16.406Z,65.8
2018-05-02T04:19:56.919Z,65.52
2018-05-02T04:20:37.418Z,65.42
2018-05-02T04:21:17.939Z,65.61
2018-05-02T04:21:58.444Z,65.71
2018-05-02T04:22:38.964Z,66
2018-05-02T04:23:19.475Z,65.52
2018-05-02T04:23:59.978Z,66.19
2018-05-02T04:24:40.485Z,66.19
2018-05-02T04:25:21.038Z,66.38
2018-05-02T04:26:01.714Z,66.09
2018-05-02T04:26:42.172Z,66.28
2018-05-02T04:27:22.666Z,66.28
2018-05-02T04:28:03.173Z,66.19
2018-05-02T04:28:43.704Z,65.8
2018-05-02T04:29:24.228Z,65.9
2018-05-02T04:30:04.816Z,66.09
2018-05-02T04:30:45.382Z,65.71
2018-05-02T04:31:25.914Z,65.33
2018-05-02T04:32:06.436Z,65.42
2018-05-02T04:32:46.943Z,65.04
2018-05-02T04:33:32.861Z,66
2018-05-02T04:34:13.347Z,65.8
2018-05-02T04:34:53.858Z,65.14
2018-05-02T04:35:34.369Z,65.14
2018-05-02T04:36:14.885Z,65.23
2018-05-02T04:36:55.395Z,66
2018-05-02T04:37:35.925Z,65.9
2018-05-02T04:38:16.465Z,65.42
2018-05-02T04:38:57.004Z,65.8
2018-05-02T04:39:37.520Z,65.9
2018-05-02T04:40:18.039Z,65.8
2018-05-02T04:40:58.566Z,66.09
2018-05-02T04:41:39.067Z,64.94
2018-05-02T04:42:19.579Z,65.04
2018-05-02T04:43:00.103Z,64.94
2018-05-02T04:43:40.646Z,65.04
2018-05-02T04:44:21.159Z,65.14
2018-05-02T04:45:01.696Z,65.14
2018-05-02T04:45:42.229Z,65.9
2018-05-02T04:46:22.718Z,65.42
2018-05-02T04:47:03.237Z,65.71
2018-05-02T04:47:43.761Z,65.87
2018-05-02T04:48:24.284Z,65.8
2018-05-02T04:49:05.037Z,66.09
2018-05-02T04:49:45.469Z,65.8
2018-05-02T04:50:25.995Z,66.38
2018-05-02T04:51:06.507Z,66
2018-05-02T04:51:47.028Z,65.33
2018-05-02T04:52:27.540Z,65.48
2018-05-02T04:53:08.060Z,65.61
2018-05-02T04:53:48.597Z,65.8
2018-05-02T04:54:29.122Z,65.8
2018-05-02T04:55:09.624Z,65.42
2018-05-02T04:55:50.149Z,65.87
2018-05-02T04:56:30.658Z,66.38
2018-05-02T04:57:11.172Z,66
2018-05-02T04:57:51.691Z,65.42
2018-05-02T04:58:32.210Z,65.42
2018-05-02T04:59:12.734Z,65.52
2018-05-02T04:59:53.246Z,65.52
2018-05-02T05:00:33.781Z,66.19
2018-05-02T05:01:14.295Z,66.25
2018-05-02T05:01:54.820Z,66.47
2018-05-02T05:02:35.332Z,66.15
2018-05-02T05:03:15.874Z,66.72
2018-05-02T05:03:56.397Z,66.44
2018-05-02T05:04:36.909Z,67.11
2018-05-02T05:05:17.422Z,67.01
2018-05-02T05:05:57.939Z,66.72
2018-05-02T05:06:38.493Z,66.72
2018-05-02T05:07:18.975Z,67.01
2018-05-02T05:07:59.496Z,67.11
2018-05-02T05:08:40.036Z,67.11
2018-05-02T05:09:20.528Z,67.21
2018-05-02T05:10:01.043Z,67.3
2018-05-02T05:10:41.554Z,67.01
2018-05-02T05:11:22.081Z,67.11
2018-05-02T05:12:02.598Z,67.11
2018-05-02T05:12:43.122Z,67.3
2018-05-02T05:13:23.658Z,67.21
2018-05-02T05:14:04.186Z,67.4
2018-05-02T05:14:44.718Z,67.58
2018-05-02T05:15:25.242Z,67.58
2018-05-02T05:16:05.776Z,67.3
2018-05-02T05:16:46.305Z,67.11
2018-05-02T05:17:26.817Z,67.11
2018-05-02T05:18:07.352Z,67.01
2018-05-02T05:18:47.896Z,67.21
2018-05-02T05:19:28.416Z,67.3
2018-05-02T05:20:08.928Z,67.21
2018-05-02T05:20:49.433Z,66.44
2018-05-02T05:21:29.970Z,66.82
2018-05-02T05:22:10.536Z,67.11
2018-05-02T05:22:51.087Z,67.21
2018-05-02T05:23:31.685Z,67.3
2018-05-02T05:24:12.240Z,67.21
2018-05-02T05:24:52.757Z,66.63
2018-05-02T05:25:33.286Z,66.92
2018-05-02T05:26:13.800Z,66.44
2018-05-02T05:26:54.334Z,67.21
2018-05-02T05:27:34.844Z,67.49
2018-05-02T05:28:15.384Z,67.21
2018-05-02T05:28:55.866Z,67.87
2018-05-02T05:29:36.400Z,73.03
2018-05-02T05:30:16.913Z,75.03
2018-05-02T05:30:57.460Z,72.64
2018-05-02T05:31:37.979Z,77.8
2018-05-02T05:32:18.524Z,77.51
2018-05-02T05:32:59.040Z,81.76
2018-05-02T05:33:39.567Z,78.75
2018-05-02T05:34:20.082Z,76.08
2018-05-02T05:35:00.604Z,78.13
2018-05-02T05:35:41.129Z,77.84
2018-05-02T05:36:21.641Z,78.31
2018-05-02T05:37:02.214Z,77.84
2018-05-02T05:37:42.728Z,78.7
2018-05-02T05:38:23.255Z,78.51
2018-05-02T05:39:03.778Z,83.47
2018-05-02T05:39:44.289Z,81.76
2018-05-02T05:40:24.825Z,83.57
2018-05-02T05:41:05.353Z,86.63
2018-05-02T05:41:45.885Z,87.48
2018-05-02T05:42:26.404Z,85.96
2018-05-02T05:43:06.923Z,83
2018-05-02T05:43:47.467Z,79.46
2018-05-02T05:44:27.987Z,75.74
2018-05-02T05:45:08.525Z,72.49
2018-05-02T05:45:49.031Z,74.21
2018-05-02T05:46:29.549Z,73.12
2018-05-02T05:47:10.060Z,76.4
2018-05-02T05:47:50.573Z,77.65
2018-05-02T05:48:31.083Z,74.88
2018-05-02T05:49:11.622Z,75.64
2018-05-02T05:49:52.135Z,79.17
2018-05-02T05:50:32.677Z,78.56
2018-05-02T05:51:13.149Z,78.28
2018-05-02T05:51:53.682Z,79.71
2018-05-02T05:52:34.208Z,77.23
2018-05-02T05:53:14.834Z,74.37
2018-05-02T05:53:55.383Z,76.46
2018-05-02T05:54:35.874Z,79.9
2018-05-02T05:55:16.380Z,80.28
2018-05-02T05:55:56.917Z,78.28
2018-05-02T05:56:37.446Z,74.74
2018-05-02T05:57:17.943Z,72.64
2018-05-02T05:57:58.462Z,72.36
2018-05-02T05:58:38.983Z,72.45
2018-05-02T05:59:19.497Z,72.83
2018-05-02T06:00:00.019Z,74.93
2018-05-02T06:00:40.540Z,73.12
2018-05-02T06:01:21.080Z,72.68
2018-05-02T06:02:01.641Z,72.01
2018-05-02T06:02:42.138Z,72.49
2018-05-02T06:03:22.659Z,72.2
2018-05-02T06:04:03.270Z,72.78
2018-05-02T06:04:43.782Z,76.03
2018-05-02T06:05:24.347Z,76.6
2018-05-02T06:06:04.835Z,73.63
2018-05-02T06:06:45.391Z,70.96
2018-05-02T06:07:26.736Z,75.07
2018-05-02T06:08:07.274Z,76.5
2018-05-02T06:08:47.804Z,79.41
2018-05-02T06:09:28.329Z,76.92
2018-05-02T06:10:08.846Z,83.13
2018-05-02T06:10:49.364Z,81.89
2018-05-02T06:11:30.518Z,78.55
2018-05-02T06:12:11.021Z,74.63
2018-05-02T06:12:51.627Z,82.28
2018-05-02T06:13:32.076Z,82.84
2018-05-02T06:14:12.607Z,82.84
2018-05-02T06:14:53.120Z,77.87
2018-05-02T06:15:33.701Z,81.93
2018-05-02T06:16:14.241Z,85.47
2018-05-02T06:16:54.748Z,81.36
2018-05-02T06:17:35.244Z,85.57
2018-05-02T06:18:15.751Z,80.4
2018-05-02T06:18:56.262Z,74.09
2018-05-02T06:19:36.791Z,76.1
2018-05-02T06:20:17.329Z,75.43
2018-05-02T06:20:57.899Z,73.33
2018-05-02T06:21:38.421Z,76.1
2018-05-02T06:22:18.939Z,84.46
2018-05-02T06:22:59.465Z,79.39
2018-05-02T06:23:39.993Z,75.95
2018-05-02T06:24:20.561Z,73.17
2018-05-02T06:25:01.031Z,70.97
2018-05-02T06:25:41.557Z,72.12
2018-05-02T06:26:22.063Z,78.24
2018-05-02T06:27:02.718Z,77
2018-05-02T06:27:43.259Z,70.59
2018-05-02T06:28:23.850Z,69.06
2018-05-02T06:29:04.366Z,75.18
2018-05-02T06:29:44.904Z,74.16
2018-05-02T06:30:25.435Z,70.78
2018-05-02T06:31:06.330Z,70.59
2018-05-02T06:32:56.957Z,81.97
2018-05-02T06:33:37.386Z,77.86
2018-05-02T06:34:17.916Z,73.65
2018-05-02T06:34:58.435Z,68.68
2018-05-02T06:35:38.957Z,70.72
2018-05-02T06:36:19.493Z,71.2
2018-05-02T06:37:00.049Z,74.32
2018-05-02T06:37:40.654Z,75.76
2018-05-02T06:38:21.094Z,72.41
2018-05-02T06:39:01.613Z,68.2
2018-05-02T06:39:42.143Z,71.16
2018-05-02T06:40:22.760Z,74.13
2018-05-02T06:41:03.190Z,74.04
2018-05-02T06:41:43.709Z,74.13
2018-05-02T06:42:24.239Z,73.55
2018-05-02T06:43:04.834Z,76.33
2018-05-02T06:43:45.346Z,71.73
2018-05-02T06:44:25.849Z,70.68
2018-05-02T06:45:06.377Z,70.97
2018-05-02T06:45:46.910Z,68.29
2018-05-02T06:46:27.421Z,68.96
2018-05-02T06:47:07.935Z,70.3
2018-05-02T06:47:48.482Z,69.25
2018-05-02T06:48:28.994Z,68.29
2018-05-02T06:49:09.552Z,67.63
2018-05-02T06:49:50.033Z,66.76
2018-05-02T06:50:30.549Z,67.72
2018-05-02T06:51:11.069Z,69.44
2018-05-02T06:51:51.566Z,71.2
2018-05-02T06:52:32.076Z,69.44
2018-05-02T06:53:12.604Z,69.95
2018-05-02T06:53:53.127Z,71.48
2018-05-02T06:54:33.671Z,70.62
2018-05-02T06:55:14.157Z,75.22
2018-05-02T06:55:54.666Z,71.2
2018-05-02T06:56:35.187Z,68.87
2018-05-02T06:57:15.710Z,69.15
2018-05-02T06:57:56.281Z,75.22
2018-05-02T06:58:36.801Z,76.75
2018-05-02T06:59:17.304Z,74.07
2018-05-02T06:59:57.935Z,74.55
2018-05-02T07:00:38.385Z,78.47
2018-05-02T07:01:18.903Z,73.79
2018-05-02T07:01:59.424Z,78.47
2018-05-02T07:02:39.972Z,72.92
2018-05-02T07:03:20.463Z,75.02
2018-05-02T07:04:01.028Z,77.13
2018-05-02T07:04:41.541Z,75.79
2018-05-02T07:05:22.061Z,81.63
2018-05-02T07:06:02.662Z,77.13
2018-05-02T07:06:43.186Z,76.08
2018-05-02T07:07:23.674Z,74.3
2018-05-02T07:08:04.210Z,70.34
2018-05-02T07:08:44.722Z,73.44
2018-05-02T07:09:25.225Z,73.72
2018-05-02T07:10:05.762Z,70.09
2018-05-02T07:10:46.275Z,74.01
2018-05-02T07:11:26.840Z,74.01
2018-05-02T07:12:07.352Z,68.65
2018-05-02T07:12:47.864Z,66.35
2018-05-02T07:13:28.416Z,67.21
2018-05-02T07:14:08.907Z,70.12
2018-05-02T07:14:49.413Z,82.29
2018-05-02T07:15:29.937Z,81.52
2018-05-02T07:16:10.510Z,76.64
2018-05-02T07:16:51.020Z,80.76
2018-05-02T07:17:31.549Z,83.44
2018-05-02T07:18:12.051Z,78.74
2018-05-02T07:18:52.575Z,74.15
2018-05-02T07:19:33.111Z,72.71
2018-05-02T07:20:13.652Z,72.52
2018-05-02T07:20:54.161Z,77.11
2018-05-02T07:21:34.667Z,72.52
2018-05-02T07:22:15.236Z,70.21
2018-05-02T07:22:55.738Z,74.15
2018-05-02T07:23:36.269Z,68.21
2018-05-02T07:24:16.773Z,66.29
2018-05-02T07:24:57.300Z,66.19
2018-05-02T07:25:37.835Z,64.76
2018-05-02T07:26:18.343Z,69.39
2018-05-02T07:26:58.860Z,68.14
2018-05-02T07:27:39.363Z,73.13
2018-05-02T07:28:19.873Z,74.76
2018-05-02T07:29:00.401Z,72.45
2018-05-02T07:29:40.915Z,69.96
2018-05-02T07:30:21.435Z,69.39
2018-05-02T07:31:01.966Z,69.1
2018-05-02T07:31:42.496Z,66.8
2018-05-02T07:32:23.012Z,63.83
2018-05-02T07:33:03.649Z,62.3
2018-05-02T07:33:44.120Z,63.83
2018-05-02T07:34:24.663Z,63.06
2018-05-02T07:35:05.176Z,66.42
2018-05-02T07:35:45.696Z,73.7
2018-05-02T07:36:26.212Z,73.41
2018-05-02T07:37:07.529Z,65.26
2018-05-02T07:37:48.044Z,62.77
2018-05-02T07:38:28.560Z,67.95
2018-05-02T07:39:09.098Z,73.55
2018-05-02T07:39:49.633Z,67.79
2018-05-02T07:40:30.149Z,66.74
2018-05-02T07:41:10.668Z,67.79
2018-05-02T07:41:51.213Z,74.85
2018-05-02T07:42:31.728Z,78.15
2018-05-02T07:43:12.242Z,73.55
2018-05-02T07:43:52.865Z,72.59
2018-05-02T07:44:33.382Z,79.49
2018-05-02T07:45:13.894Z,82.04
2018-05-02T07:45:54.422Z,80.89
2018-05-02T07:46:34.934Z,74.37
2018-05-02T07:47:15.475Z,71.21
2018-05-02T07:47:55.976Z,67.76
2018-05-02T07:48:38.173Z,65.26
2018-05-02T07:49:18.653Z,64.22
2018-05-02T07:49:59.185Z,63.35
2018-05-02T07:50:39.707Z,63.73
2018-05-02T07:51:20.241Z,66.8
2018-05-02T07:52:00.854Z,67.95
2018-05-02T07:52:41.410Z,68.46
2018-05-02T07:53:22.061Z,69.2
2018-05-02T07:54:02.734Z,69.29
2018-05-02T07:54:43.079Z,65.46
2018-05-02T07:55:23.758Z,66.45
2018-05-02T07:56:04.242Z,70.83
2018-05-02T07:56:44.710Z,68.14
2018-05-02T07:57:25.208Z,64.22
2018-05-02T07:58:05.727Z,63.16
2018-05-02T07:58:46.253Z,61.53
2018-05-02T07:59:26.773Z,60.03
2018-05-02T08:00:07.302Z,64.34
2018-05-02T08:00:47.838Z,66.74
2018-05-02T08:01:28.354Z,71.11
2018-05-02T08:02:08.904Z,66.55
2018-05-02T08:02:49.492Z,70.86
2018-05-02T08:03:30.058Z,66.64
2018-05-02T08:04:10.559Z,66.74
2018-05-02T08:04:51.086Z,62.68
2018-05-02T08:05:31.594Z,61.94
2018-05-02T08:06:12.122Z,61.75
2018-05-02T08:06:52.631Z,60.89
2018-05-02T08:09:12.778Z,71.63
2018-05-02T08:09:53.293Z,69.04
2018-05-02T08:10:33.811Z,65.3
2018-05-02T08:11:14.331Z,62.52
2018-05-02T08:11:54.843Z,64.15
2018-05-02T08:12:35.364Z,63.45
2018-05-02T08:13:15.875Z,65.75
2018-05-02T08:13:56.416Z,68.37
2018-05-02T08:14:36.928Z,68.43
2018-05-02T08:15:17.460Z,65.55
2018-05-02T08:15:57.972Z,64.4
2018-05-02T08:16:38.490Z,64.92
2018-05-02T08:17:19.017Z,67.76
2018-05-02T08:17:59.602Z,63.64
2018-05-02T08:18:40.142Z,66.42
2018-05-02T08:19:20.807Z,66.03
2018-05-02T08:20:01.338Z,66.71
2018-05-02T08:20:41.846Z,63.64
2018-05-02T08:21:22.457Z,62.3
2018-05-02T08:22:02.979Z,60.86
2018-05-02T08:22:43.459Z,66.51
2018-05-02T08:23:23.988Z,64.34
2018-05-02T08:24:04.507Z,64.69
2018-05-02T08:24:45.019Z,63.92
2018-05-02T08:25:25.556Z,60.76
2018-05-02T08:26:06.106Z,59.33
2018-05-02T08:26:46.618Z,62.59
2018-05-02T08:27:27.168Z,67.28
2018-05-02T08:28:07.653Z,68.72
2018-05-02T08:28:48.146Z,66.35
2018-05-02T08:29:28.660Z,62.62
2018-05-02T08:30:09.160Z,62.81
2018-05-02T08:30:49.659Z,63.29
2018-05-02T08:31:30.172Z,65.01
2018-05-02T08:32:11.615Z,71.82
2018-05-02T08:32:51.515Z,68.27
2018-05-02T08:33:31.980Z,67.79
2018-05-02T08:34:12.484Z,67.41
2018-05-02T08:34:52.984Z,66.93
2018-05-02T08:35:33.523Z,72.59
2018-05-02T08:36:14.022Z,64.63
2018-05-02T08:36:54.534Z,67.63
2018-05-02T08:37:35.047Z,65.14
2018-05-02T08:38:15.604Z,63.19
2018-05-02T08:38:56.176Z,69.33
2018-05-02T08:39:36.795Z,65.49
2018-05-02T08:40:17.332Z,62.62
2018-05-02T08:40:57.846Z,61.4
2018-05-02T08:41:38.340Z,64.18
2018-05-02T08:42:18.885Z,61.49
2018-05-02T08:42:59.392Z,60.15
2018-05-02T08:43:39.904Z,59.19
2018-05-02T08:44:20.417Z,58.81
2018-05-02T08:45:00.972Z,58.91
2018-05-02T08:45:41.471Z,68.69
2018-05-02T08:46:21.981Z,70.09
2018-05-02T08:47:02.506Z,66.58
2018-05-02T08:47:43.028Z,67.22
2018-05-02T08:48:23.546Z,64.72
2018-05-02T08:49:04.064Z,69.81
2018-05-02T08:49:44.597Z,64.63
2018-05-02T08:50:25.118Z,67.79